Portada
METAR-TAF:

METAR-TAF

Aeroports :

Nouakchott, Mauritània

latitud: 18-18-36N, longitud: 015-58-11W, altitud: 3 m

Observació

L'informe es va fer fa 30 minuts, a les 07:00 UTC
Vent 4 kt del Nord-Est
Temperatura 15°C
Humitat 39%
Pressió 1014 hPa
Visibilitat 10 km o més
sense núvols per sota de 1500 mi sense presència de cumulonimbus.

METAR: GQNO 220700Z 04004KT CAVOK 15/01 Q1014 NOSIG

Hora: 07:30 (07:30 UTC)

Pronòstic

L'informe es va fer fa 2 hores i 30 minuts, a les 05:00 UTC
Pronòstic vàlid del 22 a les 06 UTC al 23 a les 12 UTC
Vent 8 kt del Nord
Visibilitat: 8000 m
Evolucionant progressivament
l' 22 a les 08 UTC al 22 a les 11 UTC
Vent 10 kt del Est/Nord-Est
Evolucionant progressivament
l' 22 a les 16 UTC al 22 a les 18 UTC
Vent 10 kt del Nord
Evolucionant progressivament
l' 23 a les 08 UTC al 23 a les 11 UTC
Vent 10 kt del Nord-Est

TAF: GQNO 220500Z 2206/2312 01008KT 8000 NSC BECMG 2208/2211 07010KT BECMG 2216/2218 35010KT BECMG 2308/2311 05010KT

Observacions i pronòstics meteorològics de més de 4000 aeroports (METAR i TAF).

Les estacions disponibles són els punts grocs i vermells al mapa.

Posi el ratolí al punt desitjat per veure el nom de l'estació.

Feu clic per veure les observacions i els pronòstics meteorològics.

Per canviar el mapa: feu clic els botons verds amb una creu de color negre per apropar; al botó verd amb un guió per allunyar la imatge; o en les fletxes verdes per a mapes adjacents.


METAR-TAF: